Mobile, AL

7:53 AM CDT on July 27, 2016 (GMT -0500)
Canterbury | | Change Station

Elev 105 ft 30.62 °N, 88.19 °W | Updated 34 seconds ago

Scattered Clouds
Scattered Clouds
75.8 °F
Feels Like 75 °F
N
0.0
Wind Variable Wind from North
Gusts 0.0 mph

Today
High -- | Low -- °F
--% Chance of Precip.
Yesterday
High -- | Low -- °F
Precip. -- in
Pressure 30.03 in
Visibility 10.0 miles
Clouds Few 4500 ft
Few 8000 ft
Scattered Clouds 20000 ft
Heat Index 75 °F
Dew Point 74 °F
Humidity 95%
Rainfall 0.00 in
Snow Depth Not available.
6:07 AM 7:50 PM
Last Quarter, 43% visible
METAR KMOB 271156Z 18004KT 10SM FEW045 FEW080 SCT200 25/23 A3004 RMK AO2 SLP168 70067 T02500228 10250 20233 53014 $
Pressure 30.03 in
Visibility 10.0 miles
Clouds Few 4500 ft
Few 8000 ft
Scattered Clouds 20000 ft
Heat Index 75 °F
Dew Point 74 °F
Humidity 95%
Rainfall 0.00 in
Snow Depth Not available.
6:07 AM 7:50 PM
Last Quarter, 43% visible
METAR KMOB 271156Z 18004KT 10SM FEW045 FEW080 SCT200 25/23 A3004 RMK AO2 SLP168 70067 T02500228 10250 20233 53014 $

10-Day Weather Forecast

Almanac

Astronomy

Jul. 27, 2016 Rise Set
Actual Time
Civil Twilight
Nautical Twilight
Astronomical Twilight
Moon
Length of Visible Light
Length of Day
Tomorrow will be .
, % of the Moon is Illuminated

Today's Extremes

State Highs State Lows

Community

WunderPhotos

Upload Photos

1,927,841 photos uploaded!

WunderBlog® & News

Nearby

Air Quality

  Air Quality AQ Index Pollutant
Not available.

Snow Depth

Station Depth Elevation

Earthquake Activity

City Distance Mag. Time & Date
Minimum magnitude displayed is 2.5.

Coastal Water Temperatures

Place Temperature

Stations

Nearby Weather Stations

Station Location Temp. Windchill Dew Point Humidity Wind Precip. Elev Updated Type
                   

Watches & Warnings

There are currently no watches in effect.